sensor_id;sensor_type;location;lat;lon;timestamp;pressure;altitude;pressure_sealevel;temperature;humidity
60170;BME280;46042;49.444;6.862;2024-01-07T00:00:38;98252.16;;;3.15;100.00
60170;BME280;46042;49.444;6.862;2024-01-07T00:03:05;98255.59;;;3.16;100.00
60170;BME280;46042;49.444;6.862;2024-01-07T00:05:31;98257.56;;;3.10;100.00
60170;BME280;46042;49.444;6.862;2024-01-07T00:08:00;98262.94;;;3.06;100.00
60170;BME280;46042;49.444;6.862;2024-01-07T00:10:27;98262.75;;;3.10;100.00
60170;BME280;46042;49.444;6.862;2024-01-07T00:12:53;98267.44;;;3.02;100.00
60170;BME280;46042;49.444;6.862;2024-01-07T00:15:20;98264.84;;;3.02;100.00
60170;BME280;46042;49.444;6.862;2024-01-07T00:17:47;98265.84;;;2.98;100.00
60170;BME280;46042;49.444;6.862;2024-01-07T00:20:14;98268.22;;;3.04;100.00
60170;BME280;46042;49.444;6.862;2024-01-07T00:22:41;98262.13;;;3.05;100.00
60170;BME280;46042;49.444;6.862;2024-01-07T00:25:07;98264.44;;;2.91;100.00
60170;BME280;46042;49.444;6.862;2024-01-07T00:27:34;98271.75;;;2.81;100.00
60170;BME280;46042;49.444;6.862;2024-01-07T00:30:01;98268.44;;;2.77;100.00
60170;BME280;46042;49.444;6.862;2024-01-07T00:32:28;98263.78;;;2.86;100.00
60170;BME280;46042;49.444;6.862;2024-01-07T00:34:54;98265.38;;;2.88;100.00
60170;BME280;46042;49.444;6.862;2024-01-07T00:37:22;98267.94;;;2.90;100.00
60170;BME280;46042;49.444;6.862;2024-01-07T00:39:48;98266.31;;;2.87;100.00
60170;BME280;46042;49.444;6.862;2024-01-07T00:42:15;98271.59;;;2.86;100.00
60170;BME280;46042;49.444;6.862;2024-01-07T00:44:42;98266.47;;;2.82;100.00
60170;BME280;46042;49.444;6.862;2024-01-07T00:47:09;98271.69;;;2.82;100.00
60170;BME280;46042;49.444;6.862;2024-01-07T00:49:35;98273.59;;;2.79;100.00
60170;BME280;46042;49.444;6.862;2024-01-07T00:52:02;98273.50;;;2.80;100.00
60170;BME280;46042;49.444;6.862;2024-01-07T00:54:29;98276.50;;;2.71;100.00
60170;BME280;46042;49.444;6.862;2024-01-07T00:56:56;98278.19;;;2.72;100.00
60170;BME280;46042;49.444;6.862;2024-01-07T00:59:23;98279.53;;;2.60;100.00
60170;BME280;46042;49.444;6.862;2024-01-07T01:01:49;98279.69;;;2.55;100.00
60170;BME280;46042;49.444;6.862;2024-01-07T01:04:16;98273.75;;;2.52;100.00
60170;BME280;46042;49.444;6.862;2024-01-07T01:06:43;98271.16;;;2.52;100.00
60170;BME280;46042;49.444;6.862;2024-01-07T01:09:10;98271.53;;;2.42;100.00
60170;BME280;46042;49.444;6.862;2024-01-07T01:11:36;98279.13;;;2.47;100.00
60170;BME280;46042;49.444;6.862;2024-01-07T01:14:03;98278.34;;;2.45;100.00
60170;BME280;46042;49.444;6.862;2024-01-07T01:16:30;98281.22;;;2.37;100.00
60170;BME280;46042;49.444;6.862;2024-01-07T01:18:56;98285.03;;;2.28;100.00
60170;BME280;46042;49.444;6.862;2024-01-07T01:21:23;98285.78;;;2.32;100.00
60170;BME280;46042;49.444;6.862;2024-01-07T01:23:50;98282.09;;;2.38;100.00
60170;BME280;46042;49.444;6.862;2024-01-07T01:26:17;98285.47;;;2.40;100.00
60170;BME280;46042;49.444;6.862;2024-01-07T01:28:43;98285.91;;;2.29;100.00
60170;BME280;46042;49.444;6.862;2024-01-07T01:31:13;98283.13;;;2.34;100.00
60170;BME280;46042;49.444;6.862;2024-01-07T01:33:41;98294.19;;;2.39;100.00
60170;BME280;46042;49.444;6.862;2024-01-07T01:36:08;98298.78;;;2.32;100.00
60170;BME280;46042;49.444;6.862;2024-01-07T01:38:35;98301.38;;;2.32;100.00
60170;BME280;46042;49.444;6.862;2024-01-07T01:41:01;98303.31;;;2.27;100.00
60170;BME280;46042;49.444;6.862;2024-01-07T01:43:29;98305.81;;;2.28;100.00
60170;BME280;46042;49.444;6.862;2024-01-07T01:45:56;98303.31;;;2.27;100.00
60170;BME280;46042;49.444;6.862;2024-01-07T01:48:24;98307.72;;;2.25;100.00
60170;BME280;46042;49.444;6.862;2024-01-07T01:50:52;98305.22;;;2.22;100.00
60170;BME280;46042;49.444;6.862;2024-01-07T01:53:20;98310.47;;;2.20;100.00
60170;BME280;46042;49.444;6.862;2024-01-07T01:55:47;98310.31;;;2.25;100.00
60170;BME280;46042;49.444;6.862;2024-01-07T01:58:15;98307.13;;;2.17;100.00
60170;BME280;46042;49.444;6.862;2024-01-07T02:00:44;98311.50;;;2.16;100.00
60170;BME280;46042;49.444;6.862;2024-01-07T02:03:11;98315.50;;;2.25;100.00
60170;BME280;46042;49.444;6.862;2024-01-07T02:05:38;98310.53;;;2.19;100.00
60170;BME280;46042;49.444;6.862;2024-01-07T02:08:06;98317.66;;;2.13;100.00
60170;BME280;46042;49.444;6.862;2024-01-07T02:10:33;98315.69;;;2.20;100.00
60170;BME280;46042;49.444;6.862;2024-01-07T02:13:05;98318.03;;;2.26;100.00
60170;BME280;46042;49.444;6.862;2024-01-07T02:15:32;98321.66;;;2.22;100.00
60170;BME280;46042;49.444;6.862;2024-01-07T02:18:00;98325.94;;;2.23;100.00
60170;BME280;46042;49.444;6.862;2024-01-07T02:20:27;98318.81;;;2.28;100.00
60170;BME280;46042;49.444;6.862;2024-01-07T02:22:54;98323.81;;;2.35;100.00
60170;BME280;46042;49.444;6.862;2024-01-07T02:25:20;98320.47;;;2.31;100.00
60170;BME280;46042;49.444;6.862;2024-01-07T02:27:47;98318.03;;;2.26;100.00
60170;BME280;46042;49.444;6.862;2024-01-07T02:30:14;98323.13;;;2.30;100.00
60170;BME280;46042;49.444;6.862;2024-01-07T02:32:40;98319.81;;;2.26;100.00
60170;BME280;46042;49.444;6.862;2024-01-07T02:35:07;98322.41;;;2.26;100.00
60170;BME280;46042;49.444;6.862;2024-01-07T02:37:34;98314.50;;;2.29;100.00
60170;BME280;46042;49.444;6.862;2024-01-07T02:40:01;98319.56;;;2.32;100.00
60170;BME280;46042;49.444;6.862;2024-01-07T02:42:28;98325.44;;;2.37;100.00
60170;BME280;46042;49.444;6.862;2024-01-07T02:44:55;98322.13;;;2.34;100.00
60170;BME280;46042;49.444;6.862;2024-01-07T02:47:22;98318.41;;;2.17;100.00
60170;BME280;46042;49.444;6.862;2024-01-07T02:49:49;98322.44;;;2.24;100.00
60170;BME280;46042;49.444;6.862;2024-01-07T02:52:16;98319.94;;;2.23;100.00
60170;BME280;46042;49.444;6.862;2024-01-07T02:54:43;98324.31;;;2.21;100.00
60170;BME280;46042;49.444;6.862;2024-01-07T02:57:09;98327.75;;;2.21;100.00
60170;BME280;46042;49.444;6.862;2024-01-07T02:59:36;98318.16;;;2.23;100.00
60170;BME280;46042;49.444;6.862;2024-01-07T03:02:03;98326.81;;;2.24;100.00
60170;BME280;46042;49.444;6.862;2024-01-07T03:04:29;98324.31;;;2.21;100.00
60170;BME280;46042;49.444;6.862;2024-01-07T03:06:56;98324.31;;;2.21;100.00
60170;BME280;46042;49.444;6.862;2024-01-07T03:09:23;98318.69;;;2.09;100.00
60170;BME280;46042;49.444;6.862;2024-01-07T03:11:50;98326.41;;;2.11;100.00
60170;BME280;46042;49.444;6.862;2024-01-07T03:14:16;98320.25;;;2.13;100.00
60170;BME280;46042;49.444;6.862;2024-01-07T03:16:46;98323.63;;;2.16;100.00
60170;BME280;46042;49.444;6.862;2024-01-07T03:19:13;98331.56;;;2.12;100.00
60170;BME280;46042;49.444;6.862;2024-01-07T03:21:40;98330.47;;;2.18;100.00
60170;BME280;46042;49.444;6.862;2024-01-07T03:24:07;98335.69;;;2.18;100.00
60170;BME280;46042;49.444;6.862;2024-01-07T03:26:33;98328.16;;;2.10;100.00
60170;BME280;46042;49.444;6.862;2024-01-07T03:29:00;98333.34;;;2.10;100.00
60170;BME280;46042;49.444;6.862;2024-01-07T03:31:28;98336.69;;;2.14;100.00
60170;BME280;46042;49.444;6.862;2024-01-07T03:33:55;98335.97;;;2.10;100.00
60170;BME280;46042;49.444;6.862;2024-01-07T03:36:22;98339.34;;;2.12;100.00
60170;BME280;46042;49.444;6.862;2024-01-07T03:38:49;98345.56;;;2.08;100.00
60170;BME280;46042;49.444;6.862;2024-01-07T03:41:17;98350.69;;;2.10;100.00
60170;BME280;46042;49.444;6.862;2024-01-07T03:43:47;98353.25;;;2.11;100.00
60170;BME280;46042;49.444;6.862;2024-01-07T03:46:15;98352.63;;;2.05;100.00
60170;BME280;46042;49.444;6.862;2024-01-07T03:48:43;98349.75;;;2.12;100.00
60170;BME280;46042;49.444;6.862;2024-01-07T03:51:10;98354.94;;;2.12;100.00
60170;BME280;46042;49.444;6.862;2024-01-07T03:53:36;98351.56;;;2.10;100.00
60170;BME280;46042;49.444;6.862;2024-01-07T03:56:03;98351.56;;;2.10;100.00
60170;BME280;46042;49.444;6.862;2024-01-07T03:58:30;98360.91;;;2.15;100.00
60170;BME280;46042;49.444;6.862;2024-01-07T04:00:57;98352.56;;;2.06;100.00
60170;BME280;46042;49.444;6.862;2024-01-07T04:03:23;98350.56;;;2.13;100.00
60170;BME280;46042;49.444;6.862;2024-01-07T04:05:50;98361.97;;;2.09;100.00
60170;BME280;46042;49.444;6.862;2024-01-07T04:08:17;98354.31;;;2.06;100.00
60170;BME280;46042;49.444;6.862;2024-01-07T04:10:44;98351.59;;;2.09;100.00
60170;BME280;46042;49.444;6.862;2024-01-07T04:13:10;98348.44;;;2.01;100.00
60170;BME280;46042;49.444;6.862;2024-01-07T04:15:37;98348.38;;;2.02;100.00
60170;BME280;46042;49.444;6.862;2024-01-07T04:18:04;98353.28;;;2.10;100.00
60170;BME280;46042;49.444;6.862;2024-01-07T04:20:31;98356.16;;;2.02;100.00
60170;BME280;46042;49.444;6.862;2024-01-07T04:22:58;98355.22;;;2.05;100.00
60170;BME280;46042;49.444;6.862;2024-01-07T04:25:25;98355.22;;;2.05;100.00
60170;BME280;46042;49.444;6.862;2024-01-07T04:27:52;98357.03;;;2.03;100.00
60170;BME280;46042;49.444;6.862;2024-01-07T04:30:19;98350.84;;;2.05;100.00
60170;BME280;46042;49.444;6.862;2024-01-07T04:32:45;98352.56;;;2.06;100.00
60170;BME280;46042;49.444;6.862;2024-01-07T04:35:12;98357.78;;;2.06;100.00
60170;BME280;46042;49.444;6.862;2024-01-07T04:37:39;98367.34;;;2.04;100.00
60170;BME280;46042;49.444;6.862;2024-01-07T04:40:06;98362.63;;;2.16;100.00
60170;BME280;46042;49.444;6.862;2024-01-07T04:42:33;98360.13;;;2.12;100.00
60170;BME280;46042;49.444;6.862;2024-01-07T04:45:00;98373.09;;;2.14;100.00
60170;BME280;46042;49.444;6.862;2024-01-07T04:47:32;98370.38;;;2.17;100.00
60170;BME280;46042;49.444;6.862;2024-01-07T04:50:01;98374.06;;;2.10;100.00
60170;BME280;46042;49.444;6.862;2024-01-07T04:52:28;98383.78;;;2.05;100.00
60170;BME280;46042;49.444;6.862;2024-01-07T04:54:55;98379.44;;;2.05;100.00
60170;BME280;46042;49.444;6.862;2024-01-07T04:57:22;98381.22;;;2.03;100.00
60170;BME280;46042;49.444;6.862;2024-01-07T04:59:49;98382.22;;;2.01;100.00
60170;BME280;46042;49.444;6.862;2024-01-07T05:02:16;98380.41;;;2.03;100.00
60170;BME280;46042;49.444;6.862;2024-01-07T05:04:43;98384.06;;;1.97;100.00
60170;BME280;46042;49.444;6.862;2024-01-07T05:07:10;98387.44;;;1.99;100.00
60170;BME280;46042;49.444;6.862;2024-01-07T05:09:37;98390.16;;;1.96;100.00
60170;BME280;46042;49.444;6.862;2024-01-07T05:12:04;98391.00;;;1.96;100.00
60170;BME280;46042;49.444;6.862;2024-01-07T05:14:30;98391.06;;;1.95;100.00
60170;BME280;46042;49.444;6.862;2024-01-07T05:16:57;98386.78;;;1.94;100.00
60170;BME280;46042;49.444;6.862;2024-01-07T05:19:25;98392.13;;;1.89;100.00
60170;BME280;46042;49.444;6.862;2024-01-07T05:21:53;98402.66;;;1.84;100.00
60170;BME280;46042;49.444;6.862;2024-01-07T05:24:20;98401.06;;;1.80;100.00
60170;BME280;46042;49.444;6.862;2024-01-07T05:26:47;98406.28;;;1.80;100.00
60170;BME280;46042;49.444;6.862;2024-01-07T05:29:13;98407.94;;;1.83;100.00
60170;BME280;46042;49.444;6.862;2024-01-07T05:31:40;98406.13;;;1.85;100.00
60170;BME280;46042;49.444;6.862;2024-01-07T05:34:07;98404.34;;;1.85;100.00
60170;BME280;46042;49.444;6.862;2024-01-07T05:36:34;98404.28;;;1.89;100.00
60170;BME280;46042;49.444;6.862;2024-01-07T05:39:01;98407.75;;;1.88;100.00
60170;BME280;46042;49.444;6.862;2024-01-07T05:41:28;98408.75;;;1.83;100.00
60170;BME280;46042;49.444;6.862;2024-01-07T05:43:55;98412.16;;;1.85;100.00
60170;BME280;46042;49.444;6.862;2024-01-07T05:46:22;98415.66;;;1.84;100.00
60170;BME280;46042;49.444;6.862;2024-01-07T05:48:49;98414.66;;;1.89;100.00
60170;BME280;46042;49.444;6.862;2024-01-07T05:51:16;98419.75;;;1.92;100.00
60170;BME280;46042;49.444;6.862;2024-01-07T05:53:44;98409.25;;;1.95;100.00
60170;BME280;46042;49.444;6.862;2024-01-07T05:56:11;98417.97;;;1.92;100.00
60170;BME280;46042;49.444;6.862;2024-01-07T05:58:38;98421.19;;;2.01;100.00
60170;BME280;46042;49.444;6.862;2024-01-07T06:01:06;98423.94;;;1.96;100.00
60170;BME280;46042;49.444;6.862;2024-01-07T06:03:34;98425.06;;;1.89;100.00
60170;BME280;46042;49.444;6.862;2024-01-07T06:06:01;98426.78;;;1.88;100.00
60170;BME280;46042;49.444;6.862;2024-01-07T06:08:28;98428.44;;;1.91;100.00
60170;BME280;46042;49.444;6.862;2024-01-07T06:10:55;98430.25;;;1.89;100.00
60170;BME280;46042;49.444;6.862;2024-01-07T06:13:21;98431.03;;;1.91;100.00
60170;BME280;46042;49.444;6.862;2024-01-07T06:15:48;98434.44;;;1.93;100.00
60170;BME280;46042;49.444;6.862;2024-01-07T06:18:15;98431.03;;;1.91;100.00
60170;BME280;46042;49.444;6.862;2024-01-07T06:20:42;98442.25;;;1.91;100.00
60170;BME280;46042;49.444;6.862;2024-01-07T06:23:08;98443.03;;;1.95;100.00
60170;BME280;46042;49.444;6.862;2024-01-07T06:25:35;98440.41;;;1.95;100.00
60170;BME280;46042;49.444;6.862;2024-01-07T06:28:02;98441.22;;;1.97;100.00
60170;BME280;46042;49.444;6.862;2024-01-07T06:30:29;98451.81;;;1.91;100.00
60170;BME280;46042;49.444;6.862;2024-01-07T06:32:56;98454.09;;;2.00;100.00
60170;BME280;46042;49.444;6.862;2024-01-07T06:35:22;98456.66;;;2.02;100.00
60170;BME280;46042;49.444;6.862;2024-01-07T06:37:49;98457.28;;;2.08;100.00
60170;BME280;46042;49.444;6.862;2024-01-07T06:40:16;98458.38;;;2.01;100.00
60170;BME280;46042;49.444;6.862;2024-01-07T06:42:43;98461.31;;;1.92;100.00
60170;BME280;46042;49.444;6.862;2024-01-07T06:45:11;98461.97;;;1.98;100.00
60170;BME280;46042;49.444;6.862;2024-01-07T06:47:37;98464.63;;;1.95;100.00
60170;BME280;46042;49.444;6.862;2024-01-07T06:50:05;98463.16;;;1.88;100.00
60170;BME280;46042;49.444;6.862;2024-01-07T06:52:32;98461.56;;;1.84;100.00
60170;BME280;46042;49.444;6.862;2024-01-07T06:54:59;98466.50;;;1.92;100.00
60170;BME280;46042;49.444;6.862;2024-01-07T06:57:25;98467.31;;;1.94;100.00
60170;BME280;46042;49.444;6.862;2024-01-07T06:59:52;98481.31;;;1.90;100.00
60170;BME280;46042;49.444;6.862;2024-01-07T07:02:20;98473.31;;;1.94;100.00
60170;BME280;46042;49.444;6.862;2024-01-07T07:04:47;98485.50;;;1.94;100.00
60170;BME280;46042;49.444;6.862;2024-01-07T07:07:14;98477.81;;;1.91;100.00
60170;BME280;46042;49.444;6.862;2024-01-07T07:09:41;98473.59;;;1.87;100.00
60170;BME280;46042;49.444;6.862;2024-01-07T07:12:08;98486.38;;;1.93;100.00
60170;BME280;46042;49.444;6.862;2024-01-07T07:14:35;98484.50;;;1.96;100.00
60170;BME280;46042;49.444;6.862;2024-01-07T07:17:02;98491.63;;;1.91;100.00
60170;BME280;46042;49.444;6.862;2024-01-07T07:19:29;98491.63;;;1.91;100.00
60170;BME280;46042;49.444;6.862;2024-01-07T07:21:56;98493.63;;;1.83;100.00
60170;BME280;46042;49.444;6.862;2024-01-07T07:24:23;98489.88;;;1.92;100.00
60170;BME280;46042;49.444;6.862;2024-01-07T07:26:50;98496.88;;;1.90;100.00
60170;BME280;46042;49.444;6.862;2024-01-07T07:29:17;98505.47;;;1.92;100.00
60170;BME280;46042;49.444;6.862;2024-01-07T07:31:43;98506.19;;;1.95;100.00
60170;BME280;46042;49.444;6.862;2024-01-07T07:34:10;98512.47;;;1.90;100.00
60170;BME280;46042;49.444;6.862;2024-01-07T07:36:38;98511.72;;;1.86;100.00
60170;BME280;46042;49.444;6.862;2024-01-07T07:39:07;98512.50;;;1.88;100.00
60170;BME280;46042;49.444;6.862;2024-01-07T07:41:35;98520.19;;;1.91;100.00
60170;BME280;46042;49.444;6.862;2024-01-07T07:44:02;98518.72;;;1.84;100.00
60170;BME280;46042;49.444;6.862;2024-01-07T07:46:29;98515.06;;;1.90;100.00
60170;BME280;46042;49.444;6.862;2024-01-07T07:48:55;98512.72;;;1.82;100.00
60170;BME280;46042;49.444;6.862;2024-01-07T07:51:22;98513.44;;;1.85;100.00
60170;BME280;46042;49.444;6.862;2024-01-07T07:53:49;98514.41;;;1.83;100.00
60170;BME280;46042;49.444;6.862;2024-01-07T07:56:16;98523.13;;;1.82;100.00
60170;BME280;46042;49.444;6.862;2024-01-07T07:58:43;98530.09;;;1.80;100.00
60170;BME280;46042;49.444;6.862;2024-01-07T08:01:09;98531.50;;;1.90;100.00
60170;BME280;46042;49.444;6.862;2024-01-07T08:03:36;98538.44;;;1.90;100.00
60170;BME280;46042;49.444;6.862;2024-01-07T08:06:03;98539.91;;;1.98;100.00
60170;BME280;46042;49.444;6.862;2024-01-07T08:08:31;98541.59;;;1.99;100.00
60170;BME280;46042;49.444;6.862;2024-01-07T08:10:57;98549.47;;;1.96;100.00
60170;BME280;46042;49.444;6.862;2024-01-07T08:13:24;98548.63;;;1.96;100.00
60170;BME280;46042;49.444;6.862;2024-01-07T08:15:51;98550.22;;;2.00;100.00
60170;BME280;46042;49.444;6.862;2024-01-07T08:18:17;98546.72;;;2.01;100.00
60170;BME280;46042;49.444;6.862;2024-01-07T08:20:44;98557.13;;;2.01;100.00
60170;BME280;46042;49.444;6.862;2024-01-07T08:23:11;98553.97;;;2.18;100.00
60170;BME280;46042;49.444;6.862;2024-01-07T08:25:38;98555.72;;;2.18;100.00
60170;BME280;46042;49.444;6.862;2024-01-07T08:28:05;98555.59;;;2.21;100.00
60170;BME280;46042;49.444;6.862;2024-01-07T08:30:31;98557.53;;;2.16;100.00
60170;BME280;46042;49.444;6.862;2024-01-07T08:32:58;98561.72;;;2.20;100.00
60170;BME280;46042;49.444;6.862;2024-01-07T08:35:25;98575.94;;;2.09;100.00
60170;BME280;46042;49.444;6.862;2024-01-07T08:37:53;98573.25;;;2.11;100.00
60170;BME280;46042;49.444;6.862;2024-01-07T08:40:20;98563.50;;;2.18;100.00
60170;BME280;46042;49.444;6.862;2024-01-07T08:42:46;98572.09;;;2.20;100.00
60170;BME280;46042;49.444;6.862;2024-01-07T08:45:13;98574.69;;;2.20;100.00
60170;BME280;46042;49.444;6.862;2024-01-07T08:47:40;98587.53;;;2.26;100.00
60170;BME280;46042;49.444;6.862;2024-01-07T08:50:11;98590.16;;;2.24;100.00
60170;BME280;46042;49.444;6.862;2024-01-07T08:52:37;98586.66;;;2.25;100.00
60170;BME280;46042;49.444;6.862;2024-01-07T08:55:04;98594.09;;;2.36;100.00
60170;BME280;46042;49.444;6.862;2024-01-07T08:57:33;98591.66;;;2.32;100.00
60170;BME280;46042;49.444;6.862;2024-01-07T09:00:00;98596.03;;;2.30;100.00
60170;BME280;46042;49.444;6.862;2024-01-07T09:02:26;98596.16;;;2.26;100.00
60170;BME280;46042;49.444;6.862;2024-01-07T09:04:53;98603.13;;;2.26;100.00
60170;BME280;46042;49.444;6.862;2024-01-07T09:07:20;98597.81;;;2.29;100.00
60170;BME280;46042;49.444;6.862;2024-01-07T09:09:46;98603.59;;;2.37;100.00
60170;BME280;46042;49.444;6.862;2024-01-07T09:12:14;98611.22;;;2.44;100.00
60170;BME280;46042;49.444;6.862;2024-01-07T09:14:41;98613.25;;;2.34;100.00
60170;BME280;46042;49.444;6.862;2024-01-07T09:17:08;98614.25;;;2.30;100.00
60170;BME280;46042;49.444;6.862;2024-01-07T09:19:34;98614.41;;;2.25;100.00
60170;BME280;46042;49.444;6.862;2024-01-07T09:22:01;98614.25;;;2.30;100.00
60170;BME280;46042;49.444;6.862;2024-01-07T09:24:28;98619.41;;;2.31;100.00
60170;BME280;46042;49.444;6.862;2024-01-07T09:26:55;98620.00;;;2.39;100.00
60170;BME280;46042;49.444;6.862;2024-01-07T09:29:23;98622.44;;;2.44;100.00
60170;BME280;46042;49.444;6.862;2024-01-07T09:31:50;98628.53;;;2.43;100.00
60170;BME280;46042;49.444;6.862;2024-01-07T09:34:17;98624.13;;;2.45;100.00
60170;BME280;46042;49.444;6.862;2024-01-07T09:36:43;98624.00;;;2.50;100.00
60170;BME280;46042;49.444;6.862;2024-01-07T09:39:11;98635.91;;;2.57;100.00
60170;BME280;46042;49.444;6.862;2024-01-07T09:41:38;98628.94;;;2.58;100.00
60170;BME280;46042;49.444;6.862;2024-01-07T09:44:06;98628.19;;;2.54;100.00
60170;BME280;46042;49.444;6.862;2024-01-07T09:46:37;98632.28;;;2.61;100.00
60170;BME280;46042;49.444;6.862;2024-01-07T09:49:03;98638.16;;;2.68;100.00
60170;BME280;46042;49.444;6.862;2024-01-07T09:51:35;98624.00;;;2.75;100.00
60170;BME280;46042;49.444;6.862;2024-01-07T09:54:08;98633.25;;;2.84;100.00
60170;BME280;46042;49.444;6.862;2024-01-07T09:56:50;98637.50;;;2.87;100.00
60170;BME280;46042;49.444;6.862;2024-01-07T09:59:22;98629.91;;;2.80;100.00
60170;BME280;46042;49.444;6.862;2024-01-07T10:01:49;98643.78;;;2.81;100.00
60170;BME280;46042;49.444;6.862;2024-01-07T10:04:20;98643.50;;;2.89;100.00
60170;BME280;46042;49.444;6.862;2024-01-07T10:06:47;98640.13;;;2.87;100.00
60170;BME280;46042;49.444;6.862;2024-01-07T10:09:16;98642.50;;;2.93;100.00
60170;BME280;46042;49.444;6.862;2024-01-07T10:11:43;98650.38;;;2.91;100.00
60170;BME280;46042;49.444;6.862;2024-01-07T10:14:10;98644.09;;;2.97;100.00
60170;BME280;46042;49.444;6.862;2024-01-07T10:16:37;98648.34;;;2.99;100.00
60170;BME280;46042;49.444;6.862;2024-01-07T10:19:04;98643.25;;;2.96;100.00
60170;BME280;46042;49.444;6.862;2024-01-07T10:21:30;98647.28;;;3.05;100.00
60170;BME280;46042;49.444;6.862;2024-01-07T10:24:15;98648.91;;;3.08;100.00
60170;BME280;46042;49.444;6.862;2024-01-07T10:26:42;98641.31;;;3.02;100.00
60170;BME280;46042;49.444;6.862;2024-01-07T10:29:09;98641.22;;;3.05;100.00
60170;BME280;46042;49.444;6.862;2024-01-07T10:31:38;98643.28;;;3.20;100.00
60170;BME280;46042;49.444;6.862;2024-01-07T10:34:09;98645.59;;;3.28;100.00
60170;BME280;46042;49.444;6.862;2024-01-07T10:36:36;98646.97;;;3.38;100.00
60170;BME280;46042;49.444;6.862;2024-01-07T10:39:05;98649.13;;;3.27;100.00
60170;BME280;46042;49.444;6.862;2024-01-07T10:41:33;98654.72;;;3.40;100.00
60170;BME280;46042;49.444;6.862;2024-01-07T10:44:03;98653.09;;;3.37;100.00
60170;BME280;46042;49.444;6.862;2024-01-07T10:46:30;98651.56;;;3.32;100.00
60170;BME280;46042;49.444;6.862;2024-01-07T10:49:15;98652.34;;;3.34;100.00
60170;BME280;46042;49.444;6.862;2024-01-07T10:51:45;98644.69;;;3.29;100.00
60170;BME280;46042;49.444;6.862;2024-01-07T10:54:15;98645.59;;;3.28;100.00
60170;BME280;46042;49.444;6.862;2024-01-07T10:56:50;98647.88;;;3.37;100.00
60170;BME280;46042;49.444;6.862;2024-01-07T10:59:19;98651.94;;;3.45;100.00
60170;BME280;46042;49.444;6.862;2024-01-07T11:01:46;98655.97;;;3.53;100.00
60170;BME280;46042;49.444;6.862;2024-01-07T11:04:17;98645.84;;;3.46;100.00
60170;BME280;46042;49.444;6.862;2024-01-07T11:06:59;98648.94;;;3.55;100.00
60170;BME280;46042;49.444;6.862;2024-01-07T11:09:33;98643.06;;;3.50;100.00
60170;BME280;46042;49.444;6.862;2024-01-07T11:12:02;98652.34;;;3.58;100.00
60170;BME280;46042;49.444;6.862;2024-01-07T11:14:39;98652.13;;;3.64;100.00
60170;BME280;46042;49.444;6.862;2024-01-07T11:17:06;98645.16;;;3.64;100.00
60170;BME280;46042;49.444;6.862;2024-01-07T11:19:35;98643.84;;;3.52;100.00
60170;BME280;46042;49.444;6.862;2024-01-07T11:22:24;98647.31;;;3.29;100.00
60170;BME280;46042;49.444;6.862;2024-01-07T11:24:52;98644.75;;;3.51;100.00
60170;BME280;46042;49.444;6.862;2024-01-07T11:27:20;98640.78;;;3.41;100.00
60170;BME280;46042;49.444;6.862;2024-01-07T11:30:01;98638.41;;;3.59;100.00
60170;BME280;46042;49.444;6.862;2024-01-07T11:32:33;98639.81;;;3.67;100.00
60170;BME280;46042;49.444;6.862;2024-01-07T11:35:01;98648.03;;;3.80;100.00
60170;BME280;46042;49.444;6.862;2024-01-07T11:37:29;98648.25;;;3.74;100.00
60170;BME280;46042;49.444;6.862;2024-01-07T11:39:57;98657.09;;;3.70;100.00
60170;BME280;46042;49.444;6.862;2024-01-07T11:42:25;98659.16;;;3.62;100.00
60170;BME280;46042;49.444;6.862;2024-01-07T11:44:53;98663.63;;;3.58;100.00
60170;BME280;46042;49.444;6.862;2024-01-07T11:47:22;98652.63;;;3.50;100.00
60170;BME280;46042;49.444;6.862;2024-01-07T11:49:49;98660.00;;;3.38;100.00
60170;BME280;46042;49.444;6.862;2024-01-07T11:52:17;98654.78;;;3.38;100.00
60170;BME280;46042;49.444;6.862;2024-01-07T11:54:44;98660.91;;;3.37;100.00
60170;BME280;46042;49.444;6.862;2024-01-07T11:57:11;98657.78;;;3.27;100.00
60170;BME280;46042;49.444;6.862;2024-01-07T11:59:37;98670.88;;;3.24;100.00
60170;BME280;46042;49.444;6.862;2024-01-07T12:02:09;98655.19;;;3.27;100.00
60170;BME280;46042;49.444;6.862;2024-01-07T12:04:36;98668.00;;;3.32;100.00
60170;BME280;46042;49.444;6.862;2024-01-07T12:07:04;98673.03;;;3.38;100.00
60170;BME280;46042;49.444;6.862;2024-01-07T12:09:31;98673.56;;;3.23;100.00
60170;BME280;46042;49.444;6.862;2024-01-07T12:11:59;98671.59;;;3.30;100.00
60170;BME280;46042;49.444;6.862;2024-01-07T12:14:27;98670.81;;;3.27;100.00
60170;BME280;46042;49.444;6.862;2024-01-07T12:16:55;98676.16;;;3.23;100.00
60170;BME280;46042;49.444;6.862;2024-01-07T12:19:22;98681.00;;;3.34;100.00
60170;BME280;46042;49.444;6.862;2024-01-07T12:22:03;98679.94;;;3.39;100.00
60170;BME280;46042;49.444;6.862;2024-01-07T12:24:30;98683.31;;;3.41;100.00
60170;BME280;46042;49.444;6.862;2024-01-07T12:27:03;98679.97;;;3.38;100.00
60170;BME280;46042;49.444;6.862;2024-01-07T12:29:30;98674.47;;;3.46;100.00
60170;BME280;46042;49.444;6.862;2024-01-07T12:31:57;98673.34;;;3.29;100.00
60170;BME280;46042;49.444;6.862;2024-01-07T12:34:24;98663.91;;;3.26;100.00
60170;BME280;46042;49.444;6.862;2024-01-07T12:36:51;98676.84;;;3.28;100.00
60170;BME280;46042;49.444;6.862;2024-01-07T12:39:18;98676.09;;;3.24;100.00
60170;BME280;46042;49.444;6.862;2024-01-07T12:41:45;98668.56;;;3.17;100.00
60170;BME280;46042;49.444;6.862;2024-01-07T12:44:13;98670.28;;;3.18;100.00
60170;BME280;46042;49.444;6.862;2024-01-07T12:46:40;98676.97;;;3.25;100.00
60170;BME280;46042;49.444;6.862;2024-01-07T12:49:07;98685.03;;;3.17;100.00
60170;BME280;46042;49.444;6.862;2024-01-07T12:51:33;98688.53;;;3.16;100.00
60170;BME280;46042;49.444;6.862;2024-01-07T12:54:00;98685.31;;;3.09;100.00
60170;BME280;46042;49.444;6.862;2024-01-07T12:56:30;98691.31;;;3.11;100.00
60170;BME280;46042;49.444;6.862;2024-01-07T12:58:58;98689.88;;;3.03;100.00
60170;BME280;46042;49.444;6.862;2024-01-07T13:01:24;98687.69;;;3.16;100.00